KARB/ARB METAR and TAF weather

Enter ICAO airport designator
Station Type Date Time Source
KARB METAR 2020/01/18 04:22 UTC NOAA

KARB 180422Z AUTO 12009KT 1/2SM SN VV014 M04/M07 A3046 RMK AO2 P0000 T10391067


Station Type Date Time Source
KARB Decoded METAR 2020/01/18 04:22 UTC NOAA

ANN ARBOR MUNICIPAL AIRPORT, MI, United States (KARB) 42-13N 083-45W 251M
Jan 17, 2020 - 11:22 PM EST / 2020.01.18 0422 UTC
Wind: from the ESE (120 degrees) at 10 MPH (9 KT):0
Visibility: 1/2 mile(s):0
Sky conditions: obscured
Weather: snow
Precipitation last hour: A trace
Temperature: 25.0 F (-3.9 C)
Windchill: 15 F (-9 C):1
Dew Point: 19.9 F (-6.7 C)
Relative Humidity: 80%
Pressure (altimeter): 30.46 in. Hg (1031 hPa)
ob: KARB 180422Z AUTO 12009KT 1/2SM SN VV014 M04/M07 A3046 RMK AO2 P0000 T10391067
cycle: 4

Station Type Date Time Source
KARB TAF UTC NOAA

Error!

Example: see airport list